Lenora, KS (67645)

10:10 AM CDT on July 12, 2014 (GMT -0500)
Hill City Municipal (KHLC) Elev 2224 ft | 39.37 °N, 99.83 °W | Change Station

Current weather conditions updated 17 minutes ago

Clear
Clear
85 °F
Feels Like 85 °F
N
13
Wind Variable Wind from SW

Today is forecast to be Cooler than yesterday. Scattered thunderstorms tonight.

Today
High -- | Low -- °F
--% Chance of Precip.
Yesterday
High -- | Low -- °F
Precip. -- in
6:22 AM 9:08 PM
Full, 100% visible
Pressure 29.93 in
Visibility 10.0 miles
Clouds Clear
Heat Index 85 °F
Dew Point 62 °F
Humidity 46%
Rainfall 0.00 in
Snow Depth Not available.
UV 5 out of 12
Pollen 5.00 out of 12
Air Quality Not available.
Flu Activity No Activity
METAR KHLC 121453Z AUTO 23011KT 10SM CLR 29/17 A3001 RMK AO2 SLP133 T02940167 55001

More Conditions Fewer Conditions

Pressure 29.93 in
Visibility 10.0 miles
Clouds Clear
Heat Index 85 °F
Dew Point 62 °F
Humidity 46%
Rainfall 0.00 in
Snow Depth Not available.
UV 5 out of 12
Pollen 5.00 out of 12
Air Quality Not available.
Flu Activity No Activity
METAR KHLC 121453Z AUTO 23011KT 10SM CLR 29/17 A3001 RMK AO2 SLP133 T02940167 55001

More Conditions Fewer Conditions

10-Day Weather Forecast

Almanac

Astronomy

Jul. 12, 2014 Rise Set
Actual Time 6:22 AM CDT 9:08 PM CDT
Civil Twilight 5:50 AM CDT 9:39 PM CDT
Nautical Twilight 5:11 AM CDT 10:19 PM CDT
Astronomical Twilight 4:25 AM CDT 11:04 PM CDT
Moon 9:12 PM CDT 6:43 AM CDT
Length of Visible Light 15h 48m
Length of Day
14h 45m
Tomorrow will be 1m 12s shorter.
Full, 100% of the Moon is Illuminated
Today
Full
Jul 18
Last Quarter
Jul 26
New
Aug 3
First Quarter
Aug 10
Full

Today's Extremes

State Highs State Lows

Community

WunderPhotos

Upload Photos

1,732,850 photos uploaded!

WunderBlogs® & News

By Dr. Jeff Masters
Director of Meteorology, Weather Underground
By Kari Strenfel
Meteorologist, Weather Underground
By Christopher C. Burt
Weather Historian, Weather Underground
July 12, 2014
July 12, 2014
July 12, 2014

Nearby

Snow Depth

Station Depth Elevation
No new snow has been reported.

Earthquake Activity

City Distance Mag. Time & Date
No recent earthquake activity has been reported nearby.
Minimum magnitude displayed is 2.5.

Coastal Water Temperatures

Place Temperature
No Stations Reporting

Nearby Weather Stations

Station Location Temp. Heat Index Dew Point Humidity Wind Precip. Elev Updated Type
1 East, 2.5 South, Lenora, KS 82.0 °F - - - North  at  0.0 mph 0.00 in / hr 2467 ft 10:08 AM CDT Normal
HADS PRAIRIE DOG CREEK AT COUNTY ROAD KS, Norcatur, KS 79 °F 77 °F - - North  at  - 0.00 in / hr 2350 ft 8:45 AM CDT MADIS
Sarrada Farms 0.1 mi W, Logan, KS 84.6 °F 86 °F 64 °F 50% WNW  at  12.1 mph 0.00 in / hr 2021 ft 10:09 AM CDT Rapid Fire

Show More Stations Show Fewer Stations